Time;durP1;ratioP1;P1;durP2;ratioP2;P2;SDS_P1;SDS_P2;PMS_P1;PMS_P2;Temp;Humidity;BMP_temperature;BMP_pressure;BME280_temperature;BME280_humidity;BME280_pressure;Samples;Min_cycle;Max_cycle;Signal;HPM_P1;HPM_P2
2022/11/23 00:01:38;;;;;;;;;;;3.10;99.90;;;;;;4954630;28;20451;-64
2022/11/23 00:04:09;;;;;;;;;;;3.10;99.90;;;;;;4953122;28;19932;-66
2022/11/23 00:06:36;;;;;;;;;;;3.10;99.90;;;;;;4951832;28;20024;-65
2022/11/23 00:09:03;;;;;;;;;;;3.20;99.90;;;;;;4954275;28;19925;-66
2022/11/23 00:11:32;;;;;;;;;;;3.20;99.90;;;;;;4953661;28;19937;-66
2022/11/23 00:13:59;;;;;;;;;;;3.20;99.90;;;;;;4941515;28;20227;-64
2022/11/23 00:16:27;;;;;;;;;;;3.20;99.90;;;;;;4954669;28;19965;-68
2022/11/23 00:18:54;;;;;;;;;;;3.20;99.90;;;;;;4953552;28;19926;-66
2022/11/23 00:21:22;;;;;;;;;;;3.20;99.90;;;;;;4954670;28;20032;-66
2022/11/23 00:23:49;;;;;;;;;;;3.30;99.90;;;;;;4950906;28;20414;-66
2022/11/23 00:26:16;;;;;;;;;;;3.30;99.90;;;;;;4941940;28;19930;-66
2022/11/23 00:28:43;;;;;;;;;;;3.30;99.90;;;;;;4951847;28;20027;-64
2022/11/23 00:31:11;;;;;;;;;;;3.30;99.90;;;;;;4953876;28;19950;-67
2022/11/23 00:33:38;;;;;;;;;;;3.30;99.90;;;;;;4955286;28;19926;-65
2022/11/23 00:36:06;;;;;;;;;;;3.30;99.90;;;;;;4950050;28;19930;-68
2022/11/23 00:38:33;;;;;;;;;;;3.30;99.90;;;;;;4950532;28;19926;-65
2022/11/23 00:41:01;;;;;;;;;;;3.30;99.90;;;;;;4953128;28;19926;-64
2022/11/23 00:43:28;;;;;;;;;;;3.30;99.90;;;;;;4952434;28;19925;-66
2022/11/23 00:46:06;;;;;;;;;;;3.30;99.90;;;;;;4937530;28;19930;-67
2022/11/23 00:48:33;;;;;;;;;;;3.30;99.90;;;;;;4952091;28;20408;-66
2022/11/23 00:51:02;;;;;;;;;;;3.40;99.90;;;;;;4949976;28;20410;-65
2022/11/23 00:53:28;;;;;;;;;;;3.40;99.90;;;;;;4949057;28;20004;-63
2022/11/23 00:55:56;;;;;;;;;;;3.40;99.90;;;;;;4951682;28;20248;-66
2022/11/23 00:58:22;;;;;;;;;;;3.40;99.90;;;;;;4934053;28;20665;-64
2022/11/23 01:00:49;;;;;;;;;;;3.40;99.90;;;;;;4931963;28;19925;-66
2022/11/23 01:03:16;;;;;;;;;;;3.30;99.90;;;;;;4927395;28;19959;-63
2022/11/23 01:05:42;;;;;;;;;;;3.30;99.90;;;;;;4938667;28;19925;-66
2022/11/23 01:08:09;;;;;;;;;;;3.30;99.90;;;;;;4954259;28;19930;-67
2022/11/23 01:10:36;;;;;;;;;;;3.30;99.90;;;;;;4957011;28;19937;-65
2022/11/23 01:13:04;;;;;;;;;;;3.30;99.90;;;;;;4939011;28;19925;-66
2022/11/23 01:15:31;;;;;;;;;;;3.30;99.90;;;;;;4955251;28;19936;-65
2022/11/23 01:17:57;;;;;;;;;;;3.20;99.90;;;;;;4946141;28;19926;-65
2022/11/23 01:20:24;;;;;;;;;;;3.20;99.90;;;;;;4958018;28;19925;-66
2022/11/23 01:22:52;;;;;;;;;;;3.20;99.90;;;;;;4954945;28;20321;-66
2022/11/23 01:25:18;;;;;;;;;;;3.20;99.90;;;;;;4946736;28;20012;-66
2022/11/23 01:27:45;;;;;;;;;;;3.20;99.90;;;;;;4953321;28;19980;-65
2022/11/23 01:30:12;;;;;;;;;;;3.30;99.90;;;;;;4960736;28;20462;-65
2022/11/23 01:32:39;;;;;;;;;;;3.30;99.90;;;;;;4945519;28;20584;-66
2022/11/23 01:35:05;;;;;;;;;;;3.30;99.90;;;;;;4954293;28;19984;-66
2022/11/23 01:37:32;;;;;;;;;;;3.30;99.90;;;;;;4956090;28;19926;-67
2022/11/23 01:39:59;;;;;;;;;;;3.30;99.90;;;;;;4957071;28;20020;-68
2022/11/23 01:42:41;;;;;;;;;;;3.30;99.90;;;;;;4947931;28;19930;-65
2022/11/23 01:45:30;;;;;;;;;;;3.20;99.90;;;;;;4955972;28;20386;-67
2022/11/23 01:47:57;;;;;;;;;;;3.20;99.90;;;;;;4952147;28;20021;-67
2022/11/23 01:50:25;;;;;;;;;;;3.20;99.90;;;;;;4947554;28;20016;-68
2022/11/23 01:52:51;;;;;;;;;;;3.20;99.90;;;;;;4940937;28;20027;-68
2022/11/23 01:55:19;;;;;;;;;;;3.10;99.90;;;;;;4940530;28;20033;-67
2022/11/23 01:57:46;;;;;;;;;;;3.10;99.90;;;;;;4951989;28;20385;-66
2022/11/23 02:00:14;;;;;;;;;;;3.10;99.90;;;;;;4939096;28;20239;-66
2022/11/23 02:02:46;;;;;;;;;;;3.10;99.90;;;;;;4954224;28;20846;-64
2022/11/23 02:05:16;;;;;;;;;;;3.10;99.90;;;;;;4935742;28;20223;-65
2022/11/23 02:07:44;;;;;;;;;;;3.10;99.90;;;;;;4955693;28;19925;-65
2022/11/23 02:10:13;;;;;;;;;;;3.10;99.90;;;;;;4946824;28;20271;-67
2022/11/23 02:12:40;;;;;;;;;;;3.10;99.90;;;;;;4935122;28;19925;-63
2022/11/23 02:15:07;;;;;;;;;;;3.00;99.90;;;;;;4955476;28;19932;-66
2022/11/23 02:17:34;;;;;;;;;;;3.00;99.90;;;;;;4957702;28;19926;-66
2022/11/23 02:20:04;;;;;;;;;;;3.00;99.90;;;;;;4939089;28;19980;-66
2022/11/23 02:22:36;;;;;;;;;;;2.90;99.90;;;;;;4946746;28;20211;-65
2022/11/23 02:25:08;;;;;;;;;;;2.90;99.90;;;;;;4956629;28;20355;-68
2022/11/23 02:27:35;;;;;;;;;;;2.80;99.90;;;;;;4945033;28;20031;-66
2022/11/23 02:30:01;;;;;;;;;;;2.80;99.90;;;;;;4957082;28;19926;-67
2022/11/23 02:32:28;;;;;;;;;;;2.80;99.90;;;;;;4946887;28;19926;-67
2022/11/23 02:34:55;;;;;;;;;;;2.70;99.90;;;;;;4939379;28;19947;-67
2022/11/23 02:37:22;;;;;;;;;;;2.70;99.90;;;;;;4922059;28;19930;-68
2022/11/23 02:39:52;;;;;;;;;;;2.70;99.90;;;;;;4936711;28;19926;-64
2022/11/23 02:42:19;;;;;;;;;;;2.70;99.90;;;;;;4949032;28;19953;-63
2022/11/23 02:44:51;;;;;;;;;;;2.70;99.90;;;;;;4955545;28;19951;-63
2022/11/23 02:47:18;;;;;;;;;;;2.70;99.90;;;;;;4951950;28;19926;-63
2022/11/23 02:49:46;;;;;;;;;;;2.70;99.90;;;;;;4943883;28;20431;-63
2022/11/23 02:52:13;;;;;;;;;;;2.60;99.90;;;;;;4953930;28;20700;-63
2022/11/23 02:54:40;;;;;;;;;;;2.70;99.90;;;;;;4950214;28;20011;-63
2022/11/23 02:57:07;;;;;;;;;;;2.60;99.90;;;;;;4936841;28;20432;-63
2022/11/23 02:59:34;;;;;;;;;;;2.70;99.90;;;;;;4953001;28;19964;-64
2022/11/23 03:02:03;;;;;;;;;;;2.60;99.90;;;;;;4953973;28;19957;-64
2022/11/23 03:04:30;;;;;;;;;;;2.60;99.90;;;;;;4952968;28;20380;-64
2022/11/23 03:06:56;;;;;;;;;;;2.60;99.90;;;;;;4953172;28;20210;-64
2022/11/23 03:09:25;;;;;;;;;;;2.50;99.90;;;;;;4935794;28;19936;-65
2022/11/23 03:11:52;;;;;;;;;;;2.50;99.90;;;;;;4954628;28;20005;-67
2022/11/23 03:14:18;;;;;;;;;;;2.40;99.90;;;;;;4954676;28;20223;-64
2022/11/23 03:16:49;;;;;;;;;;;2.40;99.90;;;;;;4943273;28;19925;-66
2022/11/23 03:19:17;;;;;;;;;;;2.40;99.90;;;;;;4946529;28;20250;-67
2022/11/23 03:21:45;;;;;;;;;;;2.30;99.90;;;;;;4955422;28;20036;-65
2022/11/23 03:24:11;;;;;;;;;;;2.20;99.90;;;;;;4953840;28;20032;-65
2022/11/23 03:26:38;;;;;;;;;;;2.20;99.90;;;;;;4951391;28;19926;-66
2022/11/23 03:29:08;;;;;;;;;;;2.10;99.90;;;;;;4939840;28;19984;-65
2022/11/23 03:31:37;;;;;;;;;;;2.10;99.90;;;;;;4937039;28;19925;-67
2022/11/23 03:34:08;;;;;;;;;;;2.10;99.90;;;;;;4934948;28;19930;-68
2022/11/23 03:36:35;;;;;;;;;;;2.00;99.90;;;;;;4944460;28;19925;-65
2022/11/23 03:39:03;;;;;;;;;;;2.00;99.90;;;;;;4953055;28;19956;-66
2022/11/23 03:41:52;;;;;;;;;;;2.00;99.90;;;;;;4954325;28;20553;-65
2022/11/23 03:44:25;;;;;;;;;;;1.90;99.90;;;;;;4944638;28;19929;-64
2022/11/23 03:46:52;;;;;;;;;;;1.90;99.90;;;;;;4939061;28;19930;-66
2022/11/23 03:49:19;;;;;;;;;;;1.90;99.90;;;;;;4936335;28;20016;-67
2022/11/23 03:51:46;;;;;;;;;;;1.90;99.90;;;;;;4939393;28;19925;-65
2022/11/23 03:54:13;;;;;;;;;;;1.80;99.90;;;;;;4940608;28;20304;-66
2022/11/23 03:56:39;;;;;;;;;;;1.90;99.90;;;;;;4937163;28;19932;-67
2022/11/23 03:59:06;;;;;;;;;;;1.80;99.90;;;;;;4941682;28;20398;-66
2022/11/23 04:01:33;;;;;;;;;;;1.80;99.90;;;;;;4954806;28;20315;-66
2022/11/23 04:04:03;;;;;;;;;;;1.80;99.90;;;;;;4944213;28;20365;-66
2022/11/23 04:06:38;;;;;;;;;;;1.80;99.90;;;;;;4944615;28;19970;-64
2022/11/23 04:09:15;;;;;;;;;;;1.80;99.90;;;;;;4943648;28;20258;-65
2022/11/23 04:11:55;;;;;;;;;;;1.80;99.90;;;;;;4929136;28;20032;-66
2022/11/23 04:14:23;;;;;;;;;;;1.70;99.90;;;;;;4938441;28;20491;-65
2022/11/23 04:16:51;;;;;;;;;;;1.70;99.90;;;;;;4940000;28;19929;-66
2022/11/23 04:19:17;;;;;;;;;;;1.70;99.90;;;;;;4952400;28;19926;-67
2022/11/23 04:21:45;;;;;;;;;;;1.70;99.90;;;;;;4949820;28;19951;-65
2022/11/23 04:24:12;;;;;;;;;;;1.60;99.90;;;;;;4936402;28;19933;-68
2022/11/23 04:26:41;;;;;;;;;;;1.60;99.90;;;;;;4941046;28;20266;-65
2022/11/23 04:29:09;;;;;;;;;;;1.60;99.90;;;;;;4940834;28;20406;-66
2022/11/23 04:31:39;;;;;;;;;;;1.60;99.90;;;;;;4953038;28;20161;-65
2022/11/23 04:34:15;;;;;;;;;;;1.60;99.90;;;;;;4944139;28;20404;-66
2022/11/23 04:36:42;;;;;;;;;;;1.70;99.90;;;;;;4933603;28;19926;-67
2022/11/23 04:39:11;;;;;;;;;;;1.70;99.90;;;;;;4922229;28;20289;-65
2022/11/23 04:41:56;;;;;;;;;;;1.70;99.90;;;;;;4944506;28;20401;-66
2022/11/23 04:44:23;;;;;;;;;;;1.70;99.90;;;;;;4947117;28;19926;-66
2022/11/23 04:46:57;;;;;;;;;;;1.70;99.90;;;;;;4938903;28;19940;-66
2022/11/23 04:49:24;;;;;;;;;;;1.70;99.90;;;;;;4947903;28;19965;-67
2022/11/23 04:51:51;;;;;;;;;;;1.70;99.90;;;;;;4947714;28;20132;-67
2022/11/23 04:54:20;;;;;;;;;;;1.70;99.90;;;;;;4941002;28;19926;-67
2022/11/23 04:56:53;;;;;;;;;;;1.60;99.90;;;;;;4947537;28;20347;-68
2022/11/23 04:59:21;;;;;;;;;;;1.70;99.90;;;;;;4948615;28;20418;-66
2022/11/23 05:01:48;;;;;;;;;;;1.70;99.90;;;;;;4942753;28;20044;-68
2022/11/23 05:04:39;;;;;;;;;;;1.60;99.90;;;;;;4945491;28;19933;-65
2022/11/23 05:07:05;;;;;;;;;;;1.60;99.90;;;;;;4947399;28;20414;-67
2022/11/23 05:09:34;;;;;;;;;;;1.60;99.90;;;;;;4948399;28;20032;-68
2022/11/23 05:12:19;;;;;;;;;;;1.50;99.90;;;;;;4938111;28;20475;-68
2022/11/23 05:14:46;;;;;;;;;;;1.50;99.90;;;;;;4945997;28;20037;-68
2022/11/23 05:17:17;;;;;;;;;;;1.40;99.90;;;;;;4948521;28;20462;-67
2022/11/23 05:19:46;;;;;;;;;;;1.40;99.90;;;;;;4938711;28;20315;-67
2022/11/23 05:22:12;;;;;;;;;;;1.40;99.90;;;;;;4946947;28;19932;-68
2022/11/23 05:24:41;;;;;;;;;;;1.40;99.90;;;;;;4939874;28;20383;-65
2022/11/23 05:27:12;;;;;;;;;;;1.30;99.90;;;;;;4945093;28;20235;-65
2022/11/23 05:29:39;;;;;;;;;;;1.30;99.90;;;;;;4955401;28;20023;-67
2022/11/23 05:32:06;;;;;;;;;;;1.30;99.90;;;;;;4944734;28;20096;-67
2022/11/23 05:34:33;;;;;;;;;;;1.30;99.90;;;;;;4946540;28;20354;-67
2022/11/23 05:37:01;;;;;;;;;;;1.20;99.90;;;;;;4940130;28;20505;-66
2022/11/23 05:39:28;;;;;;;;;;;1.30;99.90;;;;;;4937229;28;19969;-67
2022/11/23 05:41:56;;;;;;;;;;;1.20;99.90;;;;;;4937670;28;20634;-65
2022/11/23 05:44:30;;;;;;;;;;;1.20;99.90;;;;;;4937298;28;20630;-67
2022/11/23 05:46:58;;;;;;;;;;;1.30;99.90;;;;;;4940845;28;20358;-67
2022/11/23 05:49:28;;;;;;;;;;;1.20;99.90;;;;;;4939995;28;19974;-66
2022/11/23 05:51:54;;;;;;;;;;;1.20;99.90;;;;;;4946172;28;20551;-65
2022/11/23 05:54:22;;;;;;;;;;;1.20;99.90;;;;;;4946735;28;19965;-67
2022/11/23 05:56:58;;;;;;;;;;;1.10;99.90;;;;;;4936902;28;20327;-66
2022/11/23 05:59:34;;;;;;;;;;;1.10;99.90;;;;;;4947741;28;19980;-67
2022/11/23 06:02:01;;;;;;;;;;;1.10;99.90;;;;;;4937916;28;19980;-66
2022/11/23 06:04:31;;;;;;;;;;;1.10;99.90;;;;;;4945629;28;19925;-67
2022/11/23 06:06:59;;;;;;;;;;;1.10;99.90;;;;;;4937656;28;20238;-66
2022/11/23 06:09:32;;;;;;;;;;;1.00;99.90;;;;;;4942583;28;20024;-66
2022/11/23 06:12:05;;;;;;;;;;;1.00;99.90;;;;;;4937022;28;19925;-65
2022/11/23 06:14:33;;;;;;;;;;;0.90;99.90;;;;;;4937946;28;19953;-66
2022/11/23 06:16:59;;;;;;;;;;;0.90;99.90;;;;;;4956595;28;20127;-65
2022/11/23 06:19:32;;;;;;;;;;;0.90;99.90;;;;;;4947264;28;20363;-66
2022/11/23 06:22:00;;;;;;;;;;;0.90;99.90;;;;;;4936408;28;20687;-65
2022/11/23 06:24:31;;;;;;;;;;;0.90;99.90;;;;;;4947354;28;20412;-65
2022/11/23 06:27:16;;;;;;;;;;;0.80;99.90;;;;;;4955487;28;20415;-66
2022/11/23 06:29:46;;;;;;;;;;;0.80;99.90;;;;;;4937113;28;19925;-65
2022/11/23 06:32:12;;;;;;;;;;;0.80;99.90;;;;;;4938852;28;19933;-64
2022/11/23 06:34:39;;;;;;;;;;;0.70;99.90;;;;;;4946450;28;20355;-64
2022/11/23 06:37:06;;;;;;;;;;;0.70;99.90;;;;;;4955221;28;20224;-55
2022/11/23 06:39:33;;;;;;;;;;;0.70;99.90;;;;;;4937525;28;20365;-53
2022/11/23 06:42:01;;;;;;;;;;;0.70;99.90;;;;;;4943680;28;19933;-54
2022/11/23 06:44:48;;;;;;;;;;;0.70;99.90;;;;;;4945242;28;19926;-54
2022/11/23 06:47:15;;;;;;;;;;;0.70;99.90;;;;;;4952405;28;20239;-50
2022/11/23 06:49:47;;;;;;;;;;;0.70;99.90;;;;;;4935872;28;19929;-52
2022/11/23 06:52:24;;;;;;;;;;;0.70;99.90;;;;;;4945155;28;19926;-53
2022/11/23 06:54:51;;;;;;;;;;;0.70;99.90;;;;;;4944443;28;19932;-54
2022/11/23 06:57:18;;;;;;;;;;;0.70;99.90;;;;;;4953340;28;20110;-54
2022/11/23 06:59:45;;;;;;;;;;;0.70;99.90;;;;;;4952092;28;20054;-54
2022/11/23 07:02:14;;;;;;;;;;;0.70;99.90;;;;;;4945240;28;20258;-55
2022/11/23 07:04:41;;;;;;;;;;;0.80;99.90;;;;;;4934936;28;19926;-52
2022/11/23 07:07:14;;;;;;;;;;;0.90;99.90;;;;;;4939539;28;19936;-53
2022/11/23 07:09:51;;;;;;;;;;;1.10;99.90;;;;;;4939631;28;19925;-52
2022/11/23 07:12:30;;;;;;;;;;;1.30;99.90;;;;;;4940684;28;20504;-55
2022/11/23 07:14:59;;;;;;;;;;;1.70;99.90;;;;;;4936512;28;20542;-55
2022/11/23 07:17:28;;;;;;;;;;;2.00;99.90;;;;;;4938933;28;19965;-54
2022/11/23 07:19:55;;;;;;;;;;;2.40;99.90;;;;;;4937243;28;19929;-59
2022/11/23 07:22:22;;;;;;;;;;;2.80;99.90;;;;;;4946204;28;20020;-54
2022/11/23 07:24:48;;;;;;;;;;;3.10;99.90;;;;;;4953861;28;20016;-55
2022/11/23 07:27:16;;;;;;;;;;;3.60;99.90;;;;;;4939626;28;20800;-54
2022/11/23 07:29:44;;;;;;;;;;;4.00;99.90;;;;;;4933674;28;19933;-53
2022/11/23 07:32:13;;;;;;;;;;;4.40;99.90;;;;;;4938346;28;19988;-54
2022/11/23 07:34:40;;;;;;;;;;;4.70;99.90;;;;;;4942629;28;19925;-55
2022/11/23 07:37:07;;;;;;;;;;;5.10;99.90;;;;;;4937619;28;19925;-58
2022/11/23 07:39:36;;;;;;;;;;;5.40;99.90;;;;;;4945502;28;20309;-53
2022/11/23 07:42:24;;;;;;;;;;;5.70;99.90;;;;;;4943895;28;19930;-53
2022/11/23 07:45:07;;;;;;;;;;;6.00;99.90;;;;;;4950422;28;19973;-55
2022/11/23 07:47:36;;;;;;;;;;;6.40;99.90;;;;;;4936373;28;19965;-53
2022/11/23 07:50:06;;;;;;;;;;;6.70;99.90;;;;;;4951933;28;20178;-54
2022/11/23 07:52:34;;;;;;;;;;;7.00;99.90;;;;;;4951089;28;20052;-54
2022/11/23 07:55:03;;;;;;;;;;;7.30;99.90;;;;;;4951492;28;20320;-55
2022/11/23 07:57:29;;;;;;;;;;;7.60;99.90;;;;;;4952512;28;19922;-56
2022/11/23 07:59:56;;;;;;;;;;;7.80;99.90;;;;;;4945599;28;19925;-53
2022/11/23 08:02:22;;;;;;;;;;;8.10;99.90;;;;;;4954440;28;19925;-56
2022/11/23 08:04:49;;;;;;;;;;;8.30;99.90;;;;;;4954135;28;19929;-53
2022/11/23 08:07:16;;;;;;;;;;;8.50;99.90;;;;;;4952245;28;19996;-53
2022/11/23 08:09:43;;;;;;;;;;;8.70;99.90;;;;;;4953306;28;19926;-53
2022/11/23 08:12:09;;;;;;;;;;;8.90;99.90;;;;;;4954132;28;19931;-54
2022/11/23 08:14:36;;;;;;;;;;;9.00;99.90;;;;;;4947308;28;19932;-53
2022/11/23 08:17:03;;;;;;;;;;;9.20;99.90;;;;;;4953446;28;20005;-53
2022/11/23 08:19:29;;;;;;;;;;;9.40;99.90;;;;;;4951254;28;20007;-51
2022/11/23 08:21:56;;;;;;;;;;;9.50;99.90;;;;;;4949271;28;20177;-49
2022/11/23 08:24:22;;;;;;;;;;;9.60;99.90;;;;;;4954020;28;19933;-53
2022/11/23 08:26:49;;;;;;;;;;;9.80;99.90;;;;;;4955147;28;19932;-54
2022/11/23 08:29:16;;;;;;;;;;;9.80;99.90;;;;;;4950360;28;19925;-52
2022/11/23 08:31:42;;;;;;;;;;;9.90;99.90;;;;;;4953467;28;20078;-55
2022/11/23 08:34:09;;;;;;;;;;;10.00;99.90;;;;;;4952049;28;20173;-55
2022/11/23 08:36:36;;;;;;;;;;;10.20;99.90;;;;;;4943328;28;20012;-53
2022/11/23 08:39:02;;;;;;;;;;;10.40;99.90;;;;;;4952097;28;20036;-52
2022/11/23 08:41:29;;;;;;;;;;;10.60;98.70;;;;;;4954295;28;20323;-56
2022/11/23 08:43:56;;;;;;;;;;;10.80;96.70;;;;;;4947328;28;20015;-54
2022/11/23 08:46:22;;;;;;;;;;;10.90;95.90;;;;;;4933051;28;20553;-52
2022/11/23 08:48:49;;;;;;;;;;;10.90;92.50;;;;;;4955751;28;19941;-54
2022/11/23 08:51:21;;;;;;;;;;;11.00;90.90;;;;;;4951227;28;20337;-52
2022/11/23 08:53:48;;;;;;;;;;;11.10;92.10;;;;;;4951804;28;20060;-49
2022/11/23 08:56:15;;;;;;;;;;;11.30;87.80;;;;;;4951678;28;19965;-48
2022/11/23 08:58:42;;;;;;;;;;;11.30;87.50;;;;;;4949606;28;20090;-51
2022/11/23 09:01:09;;;;;;;;;;;11.40;88.40;;;;;;4953381;28;19934;-47
2022/11/23 09:03:36;;;;;;;;;;;11.50;87.50;;;;;;4951074;28;20153;-49
2022/11/23 09:06:03;;;;;;;;;;;11.60;82.10;;;;;;4952227;28;19973;-51
2022/11/23 09:08:29;;;;;;;;;;;11.70;86.00;;;;;;4949368;28;20407;-50
2022/11/23 09:11:00;;;;;;;;;;;11.80;84.80;;;;;;4952795;28;19925;-52
2022/11/23 09:13:27;;;;;;;;;;;11.80;75.30;;;;;;4950895;28;19926;-53
2022/11/23 09:15:57;;;;;;;;;;;11.80;76.00;;;;;;4949998;28;20459;-52
2022/11/23 09:18:24;;;;;;;;;;;11.90;76.80;;;;;;4952785;28;19925;-49
2022/11/23 09:20:52;;;;;;;;;;;12.00;76.10;;;;;;4957140;28;19932;-52
2022/11/23 09:23:18;;;;;;;;;;;12.10;71.70;;;;;;4951937;28;19921;-53
2022/11/23 09:25:49;;;;;;;;;;;12.20;74.50;;;;;;4954625;28;19929;-54
2022/11/23 09:28:18;;;;;;;;;;;12.40;76.20;;;;;;4957095;28;19926;-56
2022/11/23 09:30:46;;;;;;;;;;;12.60;76.90;;;;;;4954390;28;20056;-54
2022/11/23 09:33:13;;;;;;;;;;;12.70;66.50;;;;;;4957957;28;19933;-55
2022/11/23 09:35:39;;;;;;;;;;;12.80;66.10;;;;;;4956420;28;19925;-56
2022/11/23 09:38:09;;;;;;;;;;;12.90;68.20;;;;;;4956205;28;20344;-55
2022/11/23 09:40:37;;;;;;;;;;;13.10;66.20;;;;;;4949277;28;20384;-54
2022/11/23 09:43:16;;;;;;;;;;;13.20;62.80;;;;;;4955436;28;20653;-55
2022/11/23 09:45:48;;;;;;;;;;;13.20;62.40;;;;;;4955696;28;19925;-56
2022/11/23 09:48:17;;;;;;;;;;;13.40;62.90;;;;;;4936336;28;20392;-54
2022/11/23 09:50:46;;;;;;;;;;;13.50;63.40;;;;;;4942840;28;20263;-54
2022/11/23 09:53:16;;;;;;;;;;;13.60;60.20;;;;;;4955526;28;19940;-53
2022/11/23 09:55:44;;;;;;;;;;;13.70;59.80;;;;;;4958750;28;19932;-55
2022/11/23 09:58:15;;;;;;;;;;;13.70;60.70;;;;;;4954149;28;20410;-55
2022/11/23 10:00:45;;;;;;;;;;;13.70;60.50;;;;;;4955472;28;20312;-54
2022/11/23 10:03:15;;;;;;;;;;;13.80;61.20;;;;;;4934800;28;20247;-52
2022/11/23 10:06:08;;;;;;;;;;;13.80;59.90;;;;;;4954778;28;20388;-55
2022/11/23 10:08:36;;;;;;;;;;;13.80;59.40;;;;;;4934261;28;19926;-53
2022/11/23 10:11:05;;;;;;;;;;;13.90;60.90;;;;;;4955961;28;19965;-55
2022/11/23 10:13:41;;;;;;;;;;;13.80;60.40;;;;;;4951239;28;20596;-54
2022/11/23 10:16:11;;;;;;;;;;;13.80;61.90;;;;;;4957869;28;19936;-51
2022/11/23 10:19:20;;;;;;;2.20;0.70;;;13.80;59.30;;;;;;5048395;27;20654;-50
2022/11/23 10:22:15;;;;;;;2.47;0.98;;;14.00;59.10;;;;;;5048378;28;20047;-54
2022/11/23 10:24:49;;;;;;;1.50;1.00;;;14.10;56.90;;;;;;5042666;28;20264;-53
2022/11/23 10:27:18;;;;;;;1.67;0.98;;;14.10;56.90;;;;;;5047553;28;20410;-53
2022/11/23 10:29:45;;;;;;;4.38;0.80;;;14.10;56.10;;;;;;5048401;28;20500;-54
2022/11/23 10:32:24;;;;;;;2.17;1.00;;;14.20;56.70;;;;;;5044439;28;20045;-51
2022/11/23 10:35:01;;;;;;;4.78;1.10;;;14.40;56.30;;;;;;5045232;28;20058;-53
2022/11/23 10:37:27;;;;;;;1.60;0.73;;;14.50;53.70;;;;;;5042381;28;20370;-54
2022/11/23 10:39:54;;;;;;;;;;;14.60;50.80;;;;;;5047061;28;20132;-53
2022/11/23 10:42:48;;;;;;;1.10;0.95;;;14.50;51.60;;;;;;5051320;28;19931;-52
2022/11/23 10:45:23;;;;;;;4.40;0.93;;;14.50;53.20;;;;;;5048525;28;20072;-53
2022/11/23 10:47:58;;;;;;;3.70;1.30;;;14.50;53.20;;;;;;5045028;28;20121;-53
2022/11/23 10:50:43;;;;;;;3.03;1.10;;;14.60;52.60;;;;;;5046125;28;20071;-54
2022/11/23 10:53:18;;;;;;;4.55;1.08;;;14.70;53.80;;;;;;5047536;28;20127;-55
2022/11/23 10:55:53;;;;;;;2.88;0.88;;;14.70;52.40;;;;;;5044170;28;20072;-53
2022/11/23 10:58:27;;;;;;;1.90;0.70;;;14.60;49.50;;;;;;5043668;28;20106;-54
2022/11/23 11:00:59;;;;;;;3.50;0.85;;;14.60;50.60;;;;;;5011552;28;20410;-55
2022/11/23 11:03:32;;;;;;;1.90;0.68;;;14.60;48.30;;;;;;5047955;28;20352;-54
2022/11/23 11:05:59;;;;;;;4.82;0.77;;;14.60;51.30;;;;;;5045765;28;20045;-55
2022/11/23 11:08:50;;;;;;;2.10;0.80;;;14.60;49.40;;;;;;5046022;28;20067;-54
2022/11/23 11:11:27;;;;;;;4.57;0.90;;;14.50;49.70;;;;;;5045010;28;20041;-52
2022/11/23 11:14:26;;;;;;;3.87;1.30;;;14.30;50.80;;;;;;5050018;28;20166;-55
2022/11/23 11:16:55;;;;;;;2.90;1.00;;;14.40;52.20;;;;;;4987250;28;20473;-54
2022/11/23 11:19:33;;;;;;;1.70;0.90;;;14.50;51.30;;;;;;5045979;28;20520;-53
2022/11/23 11:22:21;;;;;;;2.85;1.23;;;14.60;52.30;;;;;;5042229;28;20107;-52
2022/11/23 11:24:48;;;;;;;2.10;0.82;;;14.60;51.20;;;;;;5044137;28;20073;-56
2022/11/23 11:27:19;;;;;;;1.92;1.08;;;14.50;49.90;;;;;;5046600;28;20048;-52
2022/11/23 11:29:49;;;;;;;2.95;0.80;;;14.50;51.20;;;;;;5019079;28;20045;-54
2022/11/23 11:32:37;;;;;;;5.40;1.10;;;14.60;49.70;;;;;;5033980;28;20478;-54
2022/11/23 11:35:34;;;;;;;2.47;0.70;;;14.70;50.60;;;;;;5032277;28;20044;-53
2022/11/23 11:38:23;;;;;;;1.88;0.63;;;14.80;51.10;;;;;;5029732;28;20627;-53
2022/11/23 11:40:51;;;;;;;4.13;0.93;;;15.00;52.20;;;;;;5030998;28;20040;-53
2022/11/23 11:43:18;;;;;;;1.75;0.90;;;15.20;51.50;;;;;;5031456;28;20070;-56
2022/11/23 11:45:45;;;;;;;;;;;15.30;51.10;;;;;;5031905;28;20303;-51
2022/11/23 11:48:38;;;;;;;2.13;0.90;;;15.50;50.30;;;;;;5028141;28;19924;-53
2022/11/23 11:51:18;;;;;;;1.38;0.63;;;15.60;48.30;;;;;;5034506;28;20124;-53
2022/11/23 11:54:14;;;;;;;1.27;0.50;;;15.50;48.60;;;;;;5015680;28;20045;-52
2022/11/23 11:56:45;;;;;;;0.70;0.43;;;15.50;47.20;;;;;;4986088;28;20157;-52
2022/11/23 11:59:21;;;;;;;2.55;0.75;;;15.50;47.10;;;;;;5029699;28;20055;-55
2022/11/23 12:02:00;;;;;;;1.70;0.73;;;15.50;47.60;;;;;;5032198;28;20661;-54
2022/11/23 12:04:36;;;;;;;0.93;0.50;;;15.30;47.60;;;;;;5028304;28;20072;-54
2022/11/23 12:07:28;;;;;;;0.50;0.40;;;15.20;46.70;;;;;;5030790;28;20490;-53
2022/11/23 12:10:24;;;;;;;0.82;0.43;;;15.30;47.20;;;;;;5030865;28;20077;-54
2022/11/23 12:12:51;;;;;;;1.95;0.70;;;15.00;44.80;;;;;;5024181;28;20159;-54
2022/11/23 12:15:22;;;;;;;2.08;0.65;;;14.70;44.50;;;;;;5014513;28;20080;-54
2022/11/23 12:18:35;;;;;;;0.35;0.35;;;14.60;45.20;;;;;;5016932;28;20120;-52
2022/11/23 12:21:11;;;;;;;1.35;0.60;;;14.60;45.20;;;;;;5011902;28;20041;-54
2022/11/23 12:23:51;;;;;;;2.50;0.60;;;14.50;45.60;;;;;;5011675;28;20288;-53
2022/11/23 12:26:28;;;;;;;3.97;0.55;;;14.50;47.00;;;;;;5030037;28;20129;-51
2022/11/23 12:29:18;;;;;;;1.23;0.47;;;14.60;46.50;;;;;;5030516;28;20439;-54
2022/11/23 12:32:55;;;;;;;1.45;0.77;;;14.70;45.70;;;;;;5018955;28;20538;-55
2022/11/23 12:35:31;;;;;;;2.42;0.60;;;14.80;45.30;;;;;;4922540;28;20050;-55
2022/11/23 12:38:23;;;;;;;0.63;0.37;;;14.80;45.70;;;;;;4950132;28;20241;-56
2022/11/23 12:41:15;;;;;;;0.90;0.45;;;14.70;45.70;;;;;;5008194;28;20436;-53
2022/11/23 12:44:07;;;;;;;0.70;0.50;;;14.40;46.70;;;;;;5028981;28;20041;-56
2022/11/23 12:46:36;;;;;;;0.43;0.38;;;14.30;47.70;;;;;;5031223;28;20044;-53
2022/11/23 12:49:09;;;;;;;1.00;0.40;;;14.20;48.10;;;;;;5008132;28;20110;-55
2022/11/23 12:51:51;;;;;;;0.77;0.40;;;14.30;46.70;;;;;;5032539;28;20040;-53
2022/11/23 12:54:24;;;;;;;3.60;0.50;;;14.30;45.50;;;;;;5031462;28;20181;-55
2022/11/23 12:56:57;;;;;;;0.95;0.40;;;14.40;45.40;;;;;;5028612;28;20135;-58
2022/11/23 12:59:29;;;;;;;2.47;0.80;;;14.60;46.00;;;;;;5029894;28;20529;-55
2022/11/23 13:02:02;;;;;;;0.55;0.50;;;14.60;45.70;;;;;;5029902;28;20102;-56
2022/11/23 13:04:40;;;;;;;1.15;0.60;;;14.40;45.20;;;;;;5028278;28;20189;-53
2022/11/23 13:07:43;;;;;;;1.90;0.50;;;14.10;46.10;;;;;;5025766;28;20726;-52
2022/11/23 13:10:29;;;;;;;1.52;0.88;;;13.90;47.10;;;;;;4949335;28;20121;-53
2022/11/23 13:13:04;;;;;;;1.63;0.40;;;13.70;47.00;;;;;;5022547;28;20280;-56
2022/11/23 13:16:04;;;;;;;1.27;0.60;;;13.50;48.00;;;;;;5034021;28;20425;-54
2022/11/23 13:18:52;;;;;;;1.33;0.40;;;13.60;48.10;;;;;;5029771;28;20573;-53
2022/11/23 13:21:34;;;;;;;0.93;0.40;;;13.70;48.50;;;;;;5029661;28;20041;-54
2022/11/23 13:24:01;;;;;;;2.15;0.60;;;13.60;47.10;;;;;;5024550;28;20223;-53
2022/11/23 13:26:30;;;;;;;1.00;0.50;;;13.50;47.10;;;;;;4995133;28;20040;-56
2022/11/23 13:28:57;;;;;;;1.40;0.20;;;13.50;47.70;;;;;;5033173;28;20288;-57
2022/11/23 13:31:32;;;;;;;0.25;0.25;;;13.60;48.80;;;;;;5031177;28;20045;-55
2022/11/23 13:34:01;;;;;;;0.65;0.55;;;13.70;47.30;;;;;;5027286;28;20323;-54
2022/11/23 13:36:28;;;;;;;0.95;0.38;;;13.90;49.80;;;;;;5030112;28;20052;-54
2022/11/23 13:39:43;;;;;;;0.50;0.32;;;14.00;50.00;;;;;;5029459;28;20067;-55
2022/11/23 13:42:10;;;;;;;2.25;0.50;;;14.20;50.90;;;;;;5030198;28;20045;-56
2022/11/23 13:44:37;;;;;;;3.10;1.65;;;14.30;47.80;;;;;;5028424;28;20040;-54
2022/11/23 13:47:16;;;;;;;1.80;0.52;;;14.40;49.00;;;;;;5027728;28;20044;-53
2022/11/23 13:49:51;;;;;;;0.28;0.28;;;14.50;49.00;;;;;;5025069;28;20069;-54
2022/11/23 13:52:21;;;;;;;1.38;0.68;;;14.60;46.70;;;;;;5027070;28;20464;-55
2022/11/23 13:55:00;;;;;;;0.70;0.45;;;14.70;48.60;;;;;;5028179;28;20052;-55
2022/11/23 13:57:39;;;;;;;0.82;0.32;;;14.80;49.70;;;;;;5029335;28;20059;-54
2022/11/23 14:00:43;;;;;;;0.95;0.50;;;15.00;50.20;;;;;;5013861;28;20053;-54
2022/11/23 14:03:46;;;;;;;2.65;0.50;;;15.00;48.60;;;;;;5027205;28;20561;-50
2022/11/23 14:06:24;;;;;;;1.15;0.50;;;15.10;49.50;;;;;;5031315;28;20045;-54
2022/11/23 14:09:09;;;;;;;0.55;0.40;;;14.80;50.50;;;;;;5027106;28;20252;-58
2022/11/23 14:11:50;;;;;;;2.63;0.60;;;14.40;51.10;;;;;;5028638;28;20389;-56
2022/11/23 14:14:21;;;;;;;0.82;0.45;;;13.90;51.90;;;;;;5027974;28;20067;-55
2022/11/23 14:16:57;;;;;;;0.63;0.35;;;13.30;53.00;;;;;;5028999;28;20495;-53
2022/11/23 14:19:35;;;;;;;0.30;0.30;;;12.70;54.30;;;;;;5031051;28;20375;-56
2022/11/23 14:22:20;;;;;;;0.77;0.45;;;12.10;54.90;;;;;;5029358;28;20049;-55
2022/11/23 14:25:08;;;;;;;6.63;0.60;;;11.60;55.90;;;;;;5026305;28;20551;-56
2022/11/23 14:28:01;;;;;;;0.43;0.30;;;11.10;56.70;;;;;;5027701;28;20570;-54